createdAt,value
2022-09-22T00:01:22.055Z,16.65
2022-09-22T00:04:25.511Z,21.40
2022-09-22T00:07:29.618Z,18.80
2022-09-22T00:10:34.814Z,20.17
2022-09-22T00:13:38.616Z,17.65
2022-09-22T00:16:45.094Z,17.45
2022-09-22T00:19:48.600Z,17.85
2022-09-22T00:22:52.555Z,17.95
2022-09-22T00:25:57.264Z,17.02
2022-09-22T00:29:01.086Z,16.85
2022-09-22T00:32:07.315Z,18.65
2022-09-22T00:35:11.024Z,17.95
2022-09-22T00:38:14.632Z,16.77
2022-09-22T00:41:21.749Z,19.73
2022-09-22T00:44:38.484Z,17.17
2022-09-22T00:47:45.677Z,18.63
2022-09-22T00:50:50.091Z,18.52
2022-09-22T00:53:55.506Z,17.65
2022-09-22T00:57:07.949Z,17.55
2022-09-22T01:03:51.383Z,19.17
2022-09-22T01:06:56.581Z,15.55
2022-09-22T01:10:00.392Z,20.67
2022-09-22T01:13:18.104Z,18.30
2022-09-22T01:16:38.667Z,17.70
2022-09-22T01:20:11.327Z,20.52
2022-09-22T01:23:51.139Z,18.10
2022-09-22T01:27:17.336Z,13.45
2022-09-22T01:30:27.529Z,19.08
2022-09-22T01:33:44.346Z,19.00
2022-09-22T01:36:53.562Z,19.88
2022-09-22T01:40:02.998Z,18.23
2022-09-22T01:43:14.612Z,19.63
2022-09-22T01:46:26.421Z,16.75
2022-09-22T01:49:34.054Z,19.10
2022-09-22T01:52:41.248Z,18.55
2022-09-22T01:55:49.416Z,20.80
2022-09-22T01:58:56.924Z,20.52
2022-09-22T02:02:06.142Z,18.00
2022-09-22T02:05:15.849Z,17.05
2022-09-22T02:08:23.216Z,22.02
2022-09-22T02:11:26.752Z,19.95
2022-09-22T02:14:30.485Z,18.25
2022-09-22T02:17:35.701Z,17.27
2022-09-22T02:20:39.600Z,15.30
2022-09-22T02:23:43.371Z,27.45
2022-09-22T02:26:46.931Z,18.50
2022-09-22T02:29:54.891Z,18.75
2022-09-22T02:33:01.108Z,16.58
2022-09-22T02:36:18.242Z,18.83
2022-09-22T02:39:27.719Z,18.15
2022-09-22T02:42:34.964Z,19.20
2022-09-22T02:45:47.954Z,18.33
2022-09-22T02:48:56.005Z,20.58
2022-09-22T02:52:00.561Z,20.20
2022-09-22T02:55:04.250Z,18.73
2022-09-22T02:58:07.517Z,19.17
2022-09-22T03:01:10.782Z,16.77
2022-09-22T03:04:15.525Z,17.20
2022-09-22T03:07:19.168Z,24.33
2022-09-22T03:10:22.388Z,21.02
2022-09-22T03:13:25.710Z,26.10
2022-09-22T03:16:29.037Z,19.45
2022-09-22T03:19:33.729Z,22.67
2022-09-22T03:22:37.238Z,23.65
2022-09-22T03:25:40.564Z,23.92
2022-09-22T03:28:44.742Z,20.85
2022-09-22T03:31:48.095Z,21.45
2022-09-22T03:34:52.768Z,22.40
2022-09-22T03:37:56.055Z,28.00
2022-09-22T03:41:01.925Z,23.10
2022-09-22T03:44:05.882Z,21.55
2022-09-22T03:47:09.176Z,24.55
2022-09-22T03:50:14.500Z,25.08
2022-09-22T03:53:18.031Z,23.40
2022-09-22T03:56:21.634Z,24.40
2022-09-22T03:59:25.137Z,24.15
2022-09-22T04:02:28.413Z,22.00
2022-09-22T04:05:33.107Z,26.25
2022-09-22T04:08:36.399Z,23.17
2022-09-22T04:11:39.701Z,23.10
2022-09-22T04:14:43.084Z,22.88
2022-09-22T04:17:47.151Z,25.85
2022-09-22T04:20:51.826Z,28.05
2022-09-22T04:23:55.144Z,34.90
2022-09-22T04:30:21.822Z,22.52
2022-09-22T04:33:25.660Z,23.65
2022-09-22T04:36:30.290Z,25.00
2022-09-22T04:39:33.611Z,22.70
2022-09-22T04:42:37.109Z,24.60
2022-09-22T04:45:40.730Z,28.95
2022-09-22T04:48:43.936Z,23.55
2022-09-22T04:51:48.909Z,21.33
2022-09-22T04:54:52.330Z,22.58
2022-09-22T04:57:57.360Z,21.42
2022-09-22T05:01:04.043Z,25.75
2022-09-22T05:04:07.583Z,24.40
2022-09-22T05:07:12.356Z,40.13
2022-09-22T05:10:17.882Z,25.45
2022-09-22T05:13:21.454Z,23.23
2022-09-22T05:16:24.875Z,22.95
2022-09-22T05:19:28.157Z,25.27
2022-09-22T05:22:37.666Z,24.95
2022-09-22T05:25:44.300Z,21.25
2022-09-22T05:28:47.649Z,21.30
2022-09-22T05:31:51.491Z,20.73
2022-09-22T05:34:55.555Z,20.08
2022-09-22T05:38:04.030Z,18.55
2022-09-22T05:41:11.351Z,19.83
2022-09-22T05:44:14.704Z,20.38
2022-09-22T05:47:17.945Z,21.15
2022-09-22T05:50:23.808Z,19.00
2022-09-22T05:53:29.000Z,17.67
2022-09-22T05:56:32.779Z,16.35
2022-09-22T05:59:35.969Z,20.38
2022-09-22T06:02:39.546Z,15.98
2022-09-22T06:05:43.411Z,15.85
2022-09-22T06:08:49.208Z,14.68
2022-09-22T06:11:52.773Z,18.55
2022-09-22T06:14:56.675Z,14.70
2022-09-22T06:18:00.102Z,14.68
2022-09-22T06:21:03.355Z,18.98
2022-09-22T06:24:08.261Z,13.25
2022-09-22T06:27:11.581Z,14.05
2022-09-22T06:30:15.334Z,14.93
2022-09-22T06:33:18.676Z,14.15
2022-09-22T06:36:31.198Z,14.40
2022-09-22T06:39:37.534Z,12.70
2022-09-22T06:42:42.527Z,15.05
2022-09-22T06:45:46.702Z,12.27
2022-09-22T06:48:51.609Z,12.32
2022-09-22T06:52:40.463Z,12.50
2022-09-22T06:56:37.120Z,12.75
2022-09-22T07:26:43.957Z,13.60
2022-09-22T07:29:49.014Z,16.15
2022-09-22T07:32:52.714Z,14.75
2022-09-22T07:36:04.983Z,12.93
2022-09-22T07:39:11.052Z,10.30
2022-09-22T07:42:16.977Z,11.75
2022-09-22T07:45:22.050Z,14.35
2022-09-22T07:48:37.877Z,10.48
2022-09-22T07:51:41.348Z,20.23
2022-09-22T07:54:44.649Z,20.60
2022-09-22T07:57:55.277Z,12.18
2022-09-22T08:00:58.847Z,10.80
2022-09-22T08:04:02.879Z,10.30
2022-09-22T08:07:06.235Z,12.23
2022-09-22T08:10:12.942Z,21.88
2022-09-22T08:13:17.745Z,16.95
2022-09-22T08:16:22.714Z,10.90
2022-09-22T08:19:26.520Z,13.65
2022-09-22T08:22:30.434Z,12.15
2022-09-22T08:25:34.328Z,12.15
2022-09-22T08:28:39.246Z,12.48
2022-09-22T08:31:45.322Z,12.88
2022-09-22T08:34:49.118Z,13.57
2022-09-22T08:37:52.475Z,14.45
2022-09-22T08:41:12.542Z,14.07
2022-09-22T08:44:24.020Z,13.57
2022-09-22T08:47:50.194Z,13.10
2022-09-22T08:51:14.237Z,15.25
2022-09-22T08:54:17.593Z,11.10
2022-09-22T08:57:45.042Z,10.73
2022-09-22T09:00:57.216Z,12.27
2022-09-22T09:04:15.072Z,12.98
2022-09-22T09:07:30.777Z,12.25
2022-09-22T09:10:47.171Z,15.93
2022-09-22T09:14:04.001Z,10.80
2022-09-22T09:17:15.001Z,12.90
2022-09-22T09:20:21.831Z,12.55
2022-09-22T09:26:58.785Z,10.52
2022-09-22T09:30:06.967Z,11.45
2022-09-22T09:33:26.117Z,10.75
2022-09-22T09:36:33.395Z,7.88
2022-09-22T09:39:39.114Z,8.90
2022-09-22T09:42:43.322Z,9.55
2022-09-22T09:46:00.120Z,11.93
2022-09-22T09:49:11.526Z,8.25
2022-09-22T09:52:15.762Z,7.93
2022-09-22T09:55:27.398Z,8.05
2022-09-22T09:58:48.389Z,10.82
2022-09-22T10:01:54.800Z,12.85
2022-09-22T10:05:03.356Z,9.02
2022-09-22T10:08:16.822Z,17.42
2022-09-22T10:11:31.346Z,7.22
2022-09-22T10:14:36.483Z,8.13
2022-09-22T10:17:42.232Z,7.10
2022-09-22T10:20:47.171Z,5.35
2022-09-22T10:23:51.729Z,6.88
2022-09-22T10:26:57.436Z,9.15
2022-09-22T10:34:51.160Z,6.07
2022-09-22T10:37:59.203Z,5.75
2022-09-22T10:41:07.960Z,5.13
2022-09-22T10:44:37.902Z,4.70
2022-09-22T10:47:57.898Z,5.90
2022-09-22T10:51:10.905Z,3.70
2022-09-22T10:54:29.129Z,6.78
2022-09-22T10:57:56.693Z,4.70
2022-09-22T11:01:11.610Z,4.32
2022-09-22T11:04:43.064Z,5.40
2022-09-22T11:08:16.530Z,5.00
2022-09-22T11:11:45.644Z,5.78
2022-09-22T11:15:13.144Z,15.02
2022-09-22T11:18:40.914Z,6.80
2022-09-22T11:21:58.468Z,6.28
2022-09-22T11:25:15.713Z,7.43
2022-09-22T11:28:36.003Z,24.73
2022-09-22T11:35:04.707Z,4.78
2022-09-22T11:41:31.061Z,5.00
2022-09-22T11:44:47.649Z,3.40
2022-09-22T11:48:04.834Z,2.85
2022-09-22T11:51:36.005Z,3.35
2022-09-22T11:55:04.559Z,3.20
2022-09-22T12:03:14.624Z,4.05
2022-09-22T12:06:22.271Z,4.63
2022-09-22T12:09:36.838Z,9.15
2022-09-22T12:12:44.783Z,6.78
2022-09-22T12:16:00.408Z,4.03
2022-09-22T12:19:14.476Z,6.20
2022-09-22T12:22:27.911Z,9.50
2022-09-22T12:25:49.042Z,4.90
2022-09-22T12:28:53.087Z,4.80
2022-09-22T12:31:59.166Z,3.47
2022-09-22T12:35:07.713Z,4.07
2022-09-22T12:38:13.413Z,4.22
2022-09-22T12:41:25.451Z,7.57
2022-09-22T12:44:31.437Z,4.03
2022-09-22T12:47:37.122Z,5.07
2022-09-22T12:50:44.421Z,2.88
2022-09-22T12:53:48.043Z,2.85
2022-09-22T12:56:57.798Z,2.85
2022-09-22T13:00:20.866Z,3.72
2022-09-22T13:03:49.810Z,2.97
2022-09-22T13:07:01.473Z,3.58
2022-09-22T13:10:41.784Z,4.53
2022-09-22T13:13:46.909Z,5.30
2022-09-22T13:16:50.491Z,4.72
2022-09-22T13:19:57.221Z,3.03
2022-09-22T13:23:12.088Z,3.10
2022-09-22T13:26:19.328Z,3.58
2022-09-22T13:29:23.622Z,5.30
2022-09-22T13:32:28.500Z,4.18
2022-09-22T13:35:36.285Z,21.85
2022-09-22T13:38:43.975Z,41.20
2022-09-22T13:41:50.853Z,16.42
2022-09-22T13:45:00.399Z,3.80
2022-09-22T13:48:08.847Z,5.90
2022-09-22T13:51:17.155Z,4.93
2022-09-22T13:54:24.612Z,4.07
2022-09-22T13:57:34.453Z,2.55
2022-09-22T14:01:21.469Z,3.05
2022-09-22T14:04:42.988Z,5.53
2022-09-22T14:08:11.931Z,3.03
2022-09-22T14:11:36.805Z,3.55
2022-09-22T14:14:43.306Z,4.22
2022-09-22T14:17:46.880Z,4.20
2022-09-22T14:33:16.496Z,5.05
2022-09-22T14:36:24.661Z,4.95
2022-09-22T14:39:40.780Z,3.33
2022-09-22T14:43:14.184Z,5.05
2022-09-22T14:50:12.906Z,5.07
2022-09-22T14:53:28.260Z,5.97
2022-09-22T14:56:44.127Z,4.15
2022-09-22T15:00:15.760Z,3.40
2022-09-22T15:03:25.101Z,3.53
2022-09-22T15:06:48.916Z,4.23
2022-09-22T15:14:33.712Z,4.93
2022-09-22T15:17:57.380Z,4.10
2022-09-22T15:21:08.404Z,4.15
2022-09-22T15:24:12.204Z,22.88
2022-09-22T15:27:25.795Z,10.25
2022-09-22T15:30:32.905Z,4.00
2022-09-22T15:33:45.600Z,5.70
2022-09-22T15:36:53.447Z,5.00
2022-09-22T15:39:58.649Z,7.20
2022-09-22T15:43:13.319Z,4.25
2022-09-22T15:46:29.420Z,9.23
2022-09-22T15:49:35.308Z,8.73
2022-09-22T15:52:38.740Z,7.35
2022-09-22T15:55:42.197Z,7.18
2022-09-22T15:58:45.799Z,6.45
2022-09-22T16:01:52.164Z,7.88
2022-09-22T16:05:00.203Z,6.80
2022-09-22T16:08:03.989Z,8.55
2022-09-22T16:11:07.436Z,8.50
2022-09-22T16:14:11.742Z,5.85
2022-09-22T16:17:16.583Z,5.28
2022-09-22T16:20:20.074Z,5.80
2022-09-22T16:23:23.431Z,11.85
2022-09-22T16:26:28.221Z,5.85
2022-09-22T16:29:32.673Z,7.72
2022-09-22T16:32:37.504Z,6.97
2022-09-22T16:35:41.891Z,10.07
2022-09-22T16:38:45.401Z,7.00
2022-09-22T16:41:48.816Z,7.15
2022-09-22T16:44:52.221Z,8.98
2022-09-22T16:47:57.063Z,6.38
2022-09-22T16:51:00.590Z,9.95
2022-09-22T16:54:05.643Z,9.32
2022-09-22T16:57:09.715Z,11.07
2022-09-22T17:00:13.992Z,12.90
2022-09-22T17:03:19.428Z,10.95
2022-09-22T17:06:25.587Z,12.70
2022-09-22T17:09:31.802Z,14.40
2022-09-22T17:12:37.017Z,13.18
2022-09-22T17:15:40.702Z,15.10
2022-09-22T17:18:46.205Z,13.07
2022-09-22T17:21:52.253Z,14.55
2022-09-22T17:24:57.720Z,15.13
2022-09-22T17:28:01.726Z,19.13
2022-09-22T17:31:07.633Z,18.63
2022-09-22T17:34:12.918Z,17.33
2022-09-22T17:37:16.532Z,23.42
2022-09-22T17:40:20.748Z,21.33
2022-09-22T17:43:24.801Z,20.77
2022-09-22T17:46:30.197Z,23.17
2022-09-22T17:49:53.363Z,30.38
2022-09-22T17:53:14.618Z,23.63
2022-09-22T17:56:19.127Z,22.73
2022-09-22T17:59:22.991Z,22.65
2022-09-22T18:02:29.610Z,18.42
2022-09-22T18:05:38.957Z,22.85
2022-09-22T18:08:44.897Z,20.25
2022-09-22T18:11:49.062Z,20.60
2022-09-22T18:15:04.860Z,22.27
2022-09-22T18:18:10.340Z,17.10
2022-09-22T18:21:17.115Z,22.85
2022-09-22T18:24:22.624Z,18.25
2022-09-22T18:27:30.660Z,23.20
2022-09-22T18:30:40.273Z,30.38
2022-09-22T18:33:46.858Z,22.90
2022-09-22T18:36:52.548Z,30.95
2022-09-22T18:39:56.528Z,33.85
2022-09-22T18:43:00.981Z,33.72
2022-09-22T18:46:07.404Z,35.67
2022-09-22T18:49:11.252Z,34.00
2022-09-22T18:52:18.110Z,37.63
2022-09-22T18:55:22.170Z,44.15
2022-09-22T18:58:25.886Z,44.13
2022-09-22T19:01:34.901Z,38.05
2022-09-22T19:04:39.646Z,44.30
2022-09-22T19:07:47.800Z,40.42
2022-09-22T19:10:52.030Z,35.58
2022-09-22T19:13:56.055Z,36.67
2022-09-22T19:17:00.597Z,39.53
2022-09-22T19:20:04.303Z,38.45
2022-09-22T19:23:09.358Z,37.08
2022-09-22T19:26:13.075Z,31.85
2022-09-22T19:29:17.149Z,30.00
2022-09-22T19:32:21.034Z,30.38
2022-09-22T19:35:24.923Z,32.75
2022-09-22T19:38:30.114Z,29.67
2022-09-22T19:41:34.475Z,28.17
2022-09-22T19:44:40.192Z,31.55
2022-09-22T19:47:43.839Z,31.30
2022-09-22T19:50:47.735Z,33.53
2022-09-22T19:53:52.818Z,34.63
2022-09-22T19:56:56.191Z,36.13
2022-09-22T19:59:59.580Z,40.63
2022-09-22T20:03:03.161Z,35.00
2022-09-22T20:06:06.832Z,44.08
2022-09-22T20:09:11.990Z,38.33
2022-09-22T20:12:15.361Z,37.30
2022-09-22T20:15:19.787Z,37.90
2022-09-22T20:18:23.070Z,40.83
2022-09-22T20:21:27.788Z,37.97
2022-09-22T20:24:32.598Z,37.95
2022-09-22T20:27:37.291Z,38.15
2022-09-22T20:30:41.623Z,36.83
2022-09-22T20:33:45.344Z,33.58
2022-09-22T20:36:48.674Z,34.95
2022-09-22T20:39:53.669Z,31.25
2022-09-22T20:42:57.261Z,32.45
2022-09-22T20:46:03.688Z,26.67
2022-09-22T20:49:07.156Z,29.95
2022-09-22T20:52:15.101Z,27.48
2022-09-22T20:55:19.824Z,24.33
2022-09-22T20:58:23.752Z,23.17
2022-09-22T21:01:27.625Z,24.98
2022-09-22T21:04:31.847Z,22.52
2022-09-22T21:07:35.497Z,24.58
2022-09-22T21:10:39.165Z,24.65
2022-09-22T21:13:42.555Z,23.52
2022-09-22T21:16:46.202Z,21.65
2022-09-22T21:19:49.551Z,21.42
2022-09-22T21:22:53.089Z,18.60
2022-09-22T21:25:59.851Z,17.80
2022-09-22T21:29:03.324Z,16.63
2022-09-22T21:32:07.137Z,18.48
2022-09-22T21:35:13.781Z,16.17
2022-09-22T21:38:18.363Z,16.25
2022-09-22T21:41:24.935Z,17.40
2022-09-22T21:44:28.214Z,15.90
2022-09-22T21:47:31.410Z,17.58
2022-09-22T21:50:34.664Z,15.90
2022-09-22T21:53:39.503Z,15.75
2022-09-22T21:56:44.446Z,15.65
2022-09-22T21:59:47.729Z,16.42
2022-09-22T22:03:09.101Z,18.20
2022-09-22T22:06:14.027Z,17.33
2022-09-22T22:09:19.438Z,18.45
2022-09-22T22:12:24.712Z,15.57
2022-09-22T22:15:28.335Z,14.77
2022-09-22T22:18:31.887Z,15.02
2022-09-22T22:21:35.715Z,16.63
2022-09-22T22:24:42.281Z,17.63
2022-09-22T22:27:46.987Z,14.57
2022-09-22T22:30:50.304Z,20.73
2022-09-22T22:33:53.660Z,17.15
2022-09-22T22:36:58.042Z,17.85
2022-09-22T22:40:01.428Z,16.52
2022-09-22T22:43:06.164Z,17.00
2022-09-22T22:46:11.217Z,17.35
2022-09-22T22:49:14.755Z,15.85
2022-09-22T22:52:18.599Z,18.00
2022-09-22T22:55:21.886Z,15.13
2022-09-22T22:58:28.751Z,15.57
2022-09-22T23:01:33.570Z,15.27
2022-09-22T23:04:36.840Z,18.60
2022-09-22T23:07:40.239Z,16.77
2022-09-22T23:10:43.487Z,16.73
2022-09-22T23:13:51.024Z,15.55
2022-09-22T23:16:54.279Z,17.65
2022-09-22T23:19:57.743Z,19.35
2022-09-22T23:23:01.838Z,19.40
2022-09-22T23:26:06.103Z,19.27
2022-09-22T23:29:10.792Z,18.35
2022-09-22T23:32:14.940Z,18.27
2022-09-22T23:35:18.219Z,15.38
2022-09-22T23:38:21.534Z,16.58
2022-09-22T23:41:25.209Z,19.08
2022-09-22T23:44:29.796Z,18.42
2022-09-22T23:47:33.070Z,19.35
2022-09-22T23:50:36.900Z,19.08
2022-09-22T23:53:40.361Z,18.63
2022-09-22T23:56:43.788Z,17.33
2022-09-22T23:59:48.506Z,17.48
